Time;durP1;ratioP1;P1;durP2;ratioP2;P2;SDS_P1;SDS_P2;PMS_P1;PMS_P2;Temp;Humidity;BMP_temperature;BMP_pressure;BME280_temperature;BME280_humidity;BME280_pressure;Samples;Min_cycle;Max_cycle;Signal;HPM_P1;HPM_P2
2021/09/22 00:01:13;;;;;;;19.20;13.07;;;;;;;9.99;75.79;97388.72;5089139;28;20048;-74
2021/09/22 00:03:41;;;;;;;19.17;12.60;;;;;;;9.97;75.66;97385.50;5090241;28;20075;-73
2021/09/22 00:06:07;;;;;;;21.55;12.90;;;;;;;9.97;75.64;97385.50;5089755;28;20048;-74
2021/09/22 00:08:34;;;;;;;21.02;13.50;;;;;;;10.00;75.61;97386.81;5090211;28;20139;-73
2021/09/22 00:11:01;;;;;;;19.00;12.25;;;;;;;9.97;75.55;97381.94;5090387;28;20048;-74
2021/09/22 00:13:27;;;;;;;20.33;13.45;;;;;;;9.99;75.60;97387.91;5090028;28;20509;-74
2021/09/22 00:15:54;;;;;;;20.77;13.52;;;;;;;9.98;75.41;97387.09;5090045;28;20048;-73
2021/09/22 00:18:20;;;;;;;18.55;13.27;;;;;;;10.01;75.50;97396.59;5089401;28;20522;-73
2021/09/22 00:20:48;;;;;;;21.13;12.63;;;;;;;10.03;74.53;97394.41;5089659;28;20051;-73
2021/09/22 00:23:15;;;;;;;13.15;9.15;;;;;;;9.99;72.39;97399.59;5089285;28;20052;-73
2021/09/22 00:25:41;;;;;;;14.25;9.98;;;;;;;9.92;73.09;97393.69;5089893;28;20517;-73
2021/09/22 00:28:08;;;;;;;15.43;10.88;;;;;;;9.87;73.51;97401.91;5089258;28;20079;-73
2021/09/22 00:30:35;;;;;;;16.58;10.65;;;;;;;9.85;73.58;97383.13;5089745;28;20514;-73
2021/09/22 00:33:02;;;;;;;15.55;10.93;;;;;;;9.80;73.94;97387.81;5089337;28;20190;-74
2021/09/22 00:35:28;;;;;;;19.83;12.45;;;;;;;9.73;74.76;97385.44;5090197;28;20067;-74
2021/09/22 00:37:56;;;;;;;17.17;11.98;;;;;;;9.73;75.00;97379.19;5089901;28;20044;-74
2021/09/22 00:40:23;;;;;;;17.70;12.02;;;;;;;9.72;74.77;97372.16;5089057;28;20043;-73
2021/09/22 00:42:49;;;;;;;20.40;13.05;;;;;;;9.64;75.17;97374.38;5089696;28;20048;-74
2021/09/22 00:45:17;;;;;;;18.98;12.98;;;;;;;9.66;75.48;97377.63;5088771;28;20714;-73
2021/09/22 00:47:45;;;;;;;20.02;13.18;;;;;;;9.70;75.44;97382.47;5089829;28;20059;-73
2021/09/22 00:50:12;;;;;;;19.10;12.98;;;;;;;9.67;75.60;97379.25;5088854;28;20048;-73
2021/09/22 00:52:40;;;;;;;20.38;13.30;;;;;;;9.67;76.01;97381.97;5089489;28;20055;-74
2021/09/22 00:55:09;;;;;;;21.55;13.50;;;;;;;9.70;75.97;97377.03;5088972;28;20059;-74
2021/09/22 00:57:43;;;;;;;19.98;13.18;;;;;;;9.70;76.28;97386.00;5089171;28;20055;-74
2021/09/22 01:00:11;;;;;;;21.05;13.98;;;;;;;9.66;75.93;97387.72;5089008;28;20537;-74
2021/09/22 01:02:38;;;;;;;19.08;13.35;;;;;;;9.64;76.39;97382.53;5089301;28;20426;-73
2021/09/22 01:05:05;;;;;;;20.48;13.63;;;;;;;9.64;76.14;97377.09;5088810;28;20574;-74
2021/09/22 01:07:32;;;;;;;22.00;13.93;;;;;;;9.65;76.47;97370.56;5089371;28;20055;-73
2021/09/22 01:09:59;;;;;;;20.30;13.30;;;;;;;9.67;76.50;97378.44;5088950;28;20044;-73
2021/09/22 01:12:27;;;;;;;20.17;13.55;;;;;;;9.70;76.35;97368.88;5087071;28;20040;-73
2021/09/22 01:14:53;;;;;;;20.58;12.90;;;;;;;9.66;76.11;97369.47;5088405;28;20534;-73
2021/09/22 01:17:20;;;;;;;19.65;12.90;;;;;;;9.74;75.37;97364.50;5088279;28;20074;-73
2021/09/22 01:19:46;;;;;;;23.98;14.65;;;;;;;9.71;75.16;97375.94;5088299;28;20060;-74
2021/09/22 01:22:17;;;;;;;20.40;12.77;;;;;;;9.66;75.82;97365.94;5088184;28;20796;-73
2021/09/22 01:24:44;;;;;;;20.13;12.73;;;;;;;9.63;75.67;97364.59;5088576;28;20182;-73
2021/09/22 01:27:11;;;;;;;18.90;12.95;;;;;;;9.60;75.68;97365.16;5088408;28;20777;-74
2021/09/22 01:29:38;;;;;;;18.10;12.85;;;;;;;9.58;76.14;97364.66;5088923;28;20063;-74
2021/09/22 01:32:05;;;;;;;19.70;13.25;;;;;;;9.54;75.94;97360.06;5088140;28;20044;-74
2021/09/22 01:34:32;;;;;;;20.27;13.90;;;;;;;9.52;76.38;97348.69;5088742;28;20040;-74
2021/09/22 01:36:58;;;;;;;21.15;13.57;;;;;;;9.52;76.49;97346.75;5088534;28;20047;-73
2021/09/22 01:39:26;;;;;;;21.33;13.48;;;;;;;9.57;76.18;97344.00;5087940;28;20047;-73
2021/09/22 01:41:53;;;;;;;20.73;13.00;;;;;;;9.58;75.99;97334.72;5088482;28;20052;-73
2021/09/22 01:44:19;;;;;;;20.73;12.20;;;;;;;9.56;76.11;97331.50;5087857;28;20426;-73
2021/09/22 01:46:46;;;;;;;18.75;12.90;;;;;;;9.58;75.72;97340.19;5088742;28;20044;-74
2021/09/22 01:49:22;;;;;;;17.58;11.82;;;;;;;9.53;76.22;97345.66;5087687;28;20570;-73
2021/09/22 01:51:55;;;;;;;20.13;12.88;;;;;;;9.50;76.08;97340.81;5085941;28;20055;-73
2021/09/22 01:54:21;;;;;;;;;;;;;;;9.48;75.67;97342.19;5088314;28;20048;-73
2021/09/22 01:56:49;;;;;;;18.33;11.80;;;;;;;9.40;75.88;97338.19;5087799;28;19920;-73
2021/09/22 01:59:16;;;;;;;17.70;12.13;;;;;;;9.39;76.16;97337.34;5087334;28;20058;-74
2021/09/22 02:01:42;;;;;;;18.15;11.80;;;;;;;9.37;75.95;97333.31;5087764;28;20044;-73
2021/09/22 02:04:09;;;;;;;18.92;12.95;;;;;;;9.39;76.02;97352.84;5087155;28;20087;-73
2021/09/22 02:06:35;;;;;;;19.98;13.30;;;;;;;9.37;76.46;97353.16;5087964;28;20046;-73
2021/09/22 02:09:02;;;;;;;20.80;12.95;;;;;;;9.36;76.18;97353.44;5087285;28;20047;-73
2021/09/22 02:11:28;;;;;;;20.30;13.27;;;;;;;9.36;76.64;97359.69;5087852;28;20052;-73
2021/09/22 02:13:56;;;;;;;20.65;13.50;;;;;;;9.35;77.04;97358.06;5088028;28;20071;-74
2021/09/22 02:16:23;;;;;;;18.95;12.35;;;;;;;9.37;77.09;97355.06;5087483;28;20066;-74
2021/09/22 02:18:51;;;;;;;19.95;11.95;;;;;;;9.33;76.31;97362.16;5088085;28;20055;-74
2021/09/22 02:21:17;;;;;;;19.70;12.77;;;;;;;9.26;76.12;97361.69;5086901;28;20050;-73
2021/09/22 02:23:44;;;;;;;19.52;12.98;;;;;;;9.22;76.24;97361.44;5087652;28;20052;-73
2021/09/22 02:26:10;;;;;;;22.35;13.02;;;;;;;9.23;76.39;97356.81;5087038;28;20047;-74
2021/09/22 02:28:37;;;;;;;22.65;14.13;;;;;;;9.27;76.39;97366.00;5087659;28;20400;-73
2021/09/22 02:31:05;;;;;;;19.98;12.73;;;;;;;9.28;76.93;97367.63;5087365;28;20051;-73
2021/09/22 02:33:31;;;;;;;18.80;12.52;;;;;;;9.23;76.35;97365.75;5087996;28;20078;-73
2021/09/22 02:35:58;;;;;;;19.80;12.52;;;;;;;9.25;76.55;97369.03;5087911;28;20048;-73
2021/09/22 02:38:24;;;;;;;20.27;13.20;;;;;;;9.29;76.08;97363.81;5087360;28;20048;-74
2021/09/22 02:40:51;;;;;;;17.85;12.27;;;;;;;9.34;76.11;97366.50;5087683;28;20105;-73
2021/09/22 02:43:17;;;;;;;18.00;11.98;;;;;;;9.35;75.89;97370.84;5087215;28;20060;-74
2021/09/22 02:45:44;;;;;;;16.55;11.65;;;;;;;9.35;76.09;97373.56;5087685;28;20044;-73
2021/09/22 02:48:12;;;;;;;17.90;11.57;;;;;;;9.33;76.03;97364.88;5087333;28;20044;-73
2021/09/22 02:50:39;;;;;;;20.45;12.05;;;;;;;9.28;75.82;97364.91;5087975;28;20819;-74
2021/09/22 02:53:05;;;;;;;18.55;12.30;;;;;;;9.24;76.33;97355.69;5086540;28;20040;-74
2021/09/22 02:55:32;;;;;;;20.85;12.98;;;;;;;9.25;76.45;97362.78;5087445;28;20054;-73
2021/09/22 02:57:58;;;;;;;21.67;12.65;;;;;;;9.31;76.48;97361.66;5087450;28;20059;-73
2021/09/22 03:00:24;;;;;;;20.13;13.35;;;;;;;9.27;76.42;97361.38;5087107;28;20071;-74
2021/09/22 03:02:51;;;;;;;22.95;14.40;;;;;;;9.27;76.33;97355.16;5087791;28;20051;-74
2021/09/22 03:05:19;;;;;;;20.80;13.60;;;;;;;9.26;76.51;97364.41;5086802;28;20044;-73
2021/09/22 03:07:45;;;;;;;20.80;14.02;;;;;;;9.27;76.58;97376.88;5087245;28;20051;-73
2021/09/22 03:10:12;;;;;;;20.05;13.40;;;;;;;9.24;75.86;97377.44;5087003;28;20045;-73
2021/09/22 03:12:39;;;;;;;20.77;14.43;;;;;;;9.21;76.12;97383.47;5087228;28;20056;-74
2021/09/22 03:15:06;;;;;;;22.42;14.00;;;;;;;9.19;76.40;97380.19;5087210;28;20075;-73
2021/09/22 03:17:33;;;;;;;23.45;13.48;;;;;;;9.20;76.03;97382.66;5087825;28;20525;-73
2021/09/22 03:19:59;;;;;;;22.35;13.80;;;;;;;9.23;76.31;97375.84;5087483;28;20486;-74
2021/09/22 03:22:27;;;;;;;20.35;13.27;;;;;;;9.27;76.03;97366.81;5086266;28;20047;-73
2021/09/22 03:24:53;;;;;;;20.75;13.15;;;;;;;9.29;75.93;97374.69;5087326;28;20063;-74
2021/09/22 03:27:20;;;;;;;22.95;14.05;;;;;;;9.31;75.60;97377.94;5087113;28;20074;-74
2021/09/22 03:29:46;;;;;;;19.83;13.90;;;;;;;9.32;75.26;97374.13;5087098;28;20506;-73
2021/09/22 03:32:13;;;;;;;19.33;13.30;;;;;;;9.26;75.60;97373.38;5086829;28;20076;-73
2021/09/22 03:34:39;;;;;;;22.02;14.50;;;;;;;9.29;75.36;97378.25;5087230;28;20052;-73
2021/09/22 03:37:06;;;;;;;22.10;14.25;;;;;;;9.25;75.82;97373.66;5089741;28;20055;-73
2021/09/22 03:39:34;;;;;;;21.77;14.07;;;;;;;9.24;75.69;97377.44;5090923;28;20059;-73
2021/09/22 03:42:00;;;;;;;22.05;14.20;;;;;;;9.20;76.05;97382.66;5088945;28;20514;-73
2021/09/22 03:44:27;;;;;;;22.75;14.23;;;;;;;9.20;75.73;97376.41;5090056;28;20066;-74
2021/09/22 03:46:54;;;;;;;22.17;14.18;;;;;;;9.22;75.34;97382.38;5090894;28;20048;-73
2021/09/22 03:49:21;;;;;;;21.75;14.60;;;;;;;9.21;75.81;97372.59;5090249;28;20653;-73
2021/09/22 03:51:47;;;;;;;22.27;14.45;;;;;;;9.15;75.42;97369.91;5089692;28;20059;-73
2021/09/22 03:54:14;;;;;;;23.00;14.50;;;;;;;9.13;75.84;97372.13;5090181;28;20087;-74
2021/09/22 03:56:42;;;;;;;26.73;15.05;;;;;;;9.08;75.76;97369.44;5090327;28;20052;-73
2021/09/22 03:59:09;;;;;;;22.77;14.57;;;;;;;9.04;75.41;97368.38;5090149;28;20761;-73
2021/09/22 04:01:36;;;;;;;22.08;14.23;;;;;;;9.06;75.06;97368.91;5090578;28;20048;-74
2021/09/22 04:04:02;;;;;;;23.10;14.43;;;;;;;9.10;74.73;97372.66;5090371;28;20082;-73
2021/09/22 04:06:29;;;;;;;23.48;14.15;;;;;;;9.07;75.43;97372.41;5090474;28;20056;-73
2021/09/22 04:08:55;;;;;;;20.67;13.40;;;;;;;9.04;75.49;97373.81;5090541;28;20403;-73
2021/09/22 04:11:21;;;;;;;22.98;14.77;;;;;;;9.01;75.55;97370.84;5089901;28;20059;-73
2021/09/22 04:13:49;;;;;;;25.00;15.25;;;;;;;8.99;75.54;97360.25;5090551;28;20048;-74
2021/09/22 04:16:16;;;;;;;23.50;14.57;;;;;;;9.00;75.61;97366.50;5089787;28;20044;-74
2021/09/22 04:18:43;;;;;;;23.60;15.00;;;;;;;9.02;75.54;97358.88;5090536;28;20056;-73
2021/09/22 04:21:09;;;;;;;26.17;16.13;;;;;;;9.00;75.59;97361.88;5089261;28;20056;-74
2021/09/22 04:23:36;;;;;;;26.30;15.07;;;;;;;9.00;75.54;97371.94;5089981;28;20052;-73
2021/09/22 04:26:02;;;;;;;25.15;15.45;;;;;;;8.98;75.77;97374.94;5089280;28;20052;-73
2021/09/22 04:28:29;;;;;;;24.00;15.95;;;;;;;8.96;76.19;97379.03;5089836;28;20130;-73
2021/09/22 04:30:56;;;;;;;22.83;14.90;;;;;;;8.94;76.10;97376.59;5089669;28;20048;-73
2021/09/22 04:33:23;;;;;;;25.73;15.55;;;;;;;8.93;76.20;97377.69;5089355;28;20043;-73
2021/09/22 04:35:51;;;;;;;24.27;15.02;;;;;;;8.94;76.17;97376.59;5089855;28;20072;-73
2021/09/22 04:38:18;;;;;;;23.50;14.57;;;;;;;8.98;75.49;97363.25;5088957;28;20135;-73
2021/09/22 04:40:44;;;;;;;24.70;14.95;;;;;;;8.97;75.79;97378.72;5089663;28;20058;-73
2021/09/22 04:43:11;;;;;;;26.90;15.50;;;;;;;8.96;75.54;97360.81;5089027;28;20055;-73
2021/09/22 04:45:37;;;;;;;24.05;15.27;;;;;;;8.94;75.95;97371.16;5089730;28;20055;-73
2021/09/22 04:48:07;;;;;;;26.73;15.05;;;;;;;8.92;76.36;97376.06;5088992;28;20055;-73
2021/09/22 04:50:34;;;;;;;26.83;16.45;;;;;;;8.94;76.38;97379.31;5089001;28;20596;-73
2021/09/22 04:53:00;;;;;;;25.50;16.02;;;;;;;8.98;75.45;97385.81;5088625;28;20051;-73
2021/09/22 04:55:27;;;;;;;23.25;14.32;;;;;;;8.94;75.35;97384.75;5088789;28;20635;-73
2021/09/22 04:57:53;;;;;;;23.45;15.00;;;;;;;8.92;75.50;97389.63;5088706;28;20052;-73
2021/09/22 05:00:20;;;;;;;22.92;14.98;;;;;;;8.91;76.23;97385.31;5088657;28;20044;-73
2021/09/22 05:02:46;;;;;;;24.70;15.30;;;;;;;8.93;76.24;97388.56;5089182;28;20602;-73
2021/09/22 05:05:14;;;;;;;22.83;15.18;;;;;;;8.92;76.45;97394.25;5088746;28;20505;-73
2021/09/22 05:07:41;;;;;;;24.40;16.48;;;;;;;8.92;76.22;97400.50;5089183;28;20354;-73
2021/09/22 05:10:09;;;;;;;27.33;16.15;;;;;;;8.93;76.17;97399.44;5088391;28;20055;-72
2021/09/22 05:12:35;;;;;;;26.20;15.82;;;;;;;8.93;75.97;97398.59;5088910;28;20051;-72
2021/09/22 05:15:02;;;;;;;24.70;16.00;;;;;;;8.93;76.00;97399.44;5088799;28;20051;-73
2021/09/22 05:17:28;;;;;;;26.50;17.33;;;;;;;8.94;76.35;97403.75;5088949;28;20052;-73
2021/09/22 05:19:55;;;;;;;25.67;16.08;;;;;;;8.96;76.73;97396.13;5088964;28;20060;-73
2021/09/22 05:22:22;;;;;;;25.60;16.00;;;;;;;8.94;76.24;97400.25;5087608;28;20059;-73
2021/09/22 05:24:49;;;;;;;25.48;16.30;;;;;;;8.93;76.24;97404.88;5089039;28;20777;-73
2021/09/22 05:27:16;;;;;;;27.23;16.15;;;;;;;8.94;76.87;97400.25;5088574;28;20048;-72
2021/09/22 05:29:42;;;;;;;27.83;16.52;;;;;;;8.95;77.12;97391.81;5088770;28;20040;-73
2021/09/22 05:32:09;;;;;;;26.02;15.82;;;;;;;8.98;76.70;97395.84;5088045;28;20052;-73
2021/09/22 05:34:36;;;;;;;26.67;16.35;;;;;;;9.00;76.92;97394.47;5088784;28;20785;-73
2021/09/22 05:37:02;;;;;;;24.88;15.48;;;;;;;8.99;76.40;97395.59;5088137;28;20454;-73
2021/09/22 05:39:30;;;;;;;24.52;15.73;;;;;;;8.98;76.63;97385.81;5088640;28;20056;-73
2021/09/22 05:41:57;;;;;;;26.92;15.95;;;;;;;9.04;76.91;97395.53;5085096;28;20110;-73
2021/09/22 05:44:23;;;;;;;22.48;14.43;;;;;;;9.09;76.64;97392.78;5088071;28;20051;-72
2021/09/22 05:46:50;;;;;;;23.65;14.95;;;;;;;9.12;76.32;97392.22;5088284;28;20052;-72
2021/09/22 05:49:17;;;;;;;25.42;14.77;;;;;;;9.15;76.64;97388.94;5087948;28;20055;-72
2021/09/22 05:51:44;;;;;;;22.90;14.50;;;;;;;9.12;76.60;97389.50;5087649;28;20689;-72
2021/09/22 05:54:10;;;;;;;24.48;14.63;;;;;;;9.11;76.72;97397.94;5087961;28;20048;-71
2021/09/22 05:56:38;;;;;;;25.15;15.07;;;;;;;9.12;76.81;97396.84;5088319;28;20040;-72
2021/09/22 05:59:04;;;;;;;24.05;15.02;;;;;;;9.14;77.36;97400.91;5087180;28;20086;-72
2021/09/22 06:01:31;;;;;;;25.70;15.10;;;;;;;9.17;76.59;97404.16;5088099;28;20051;-71
2021/09/22 06:03:57;;;;;;;27.05;15.05;;;;;;;9.20;77.02;97395.44;5088121;28;20048;-72
2021/09/22 06:06:24;;;;;;;25.95;15.48;;;;;;;9.27;77.13;97398.63;5087776;28;20048;-72
2021/09/22 06:08:50;;;;;;;23.42;14.88;;;;;;;9.33;77.17;97409.16;5086649;28;20048;-72
2021/09/22 06:11:17;;;;;;;25.73;14.88;;;;;;;9.42;76.56;97406.66;5087268;28;20044;-72
2021/09/22 06:13:45;;;;;;;23.90;15.02;;;;;;;9.45;76.38;97403.38;5087820;28;20048;-72
2021/09/22 06:16:12;;;;;;;23.23;14.73;;;;;;;9.49;76.29;97401.69;5087689;28;20052;-73
2021/09/22 06:18:38;;;;;;;21.27;14.02;;;;;;;9.46;75.76;97398.75;5087744;28;20048;-73
2021/09/22 06:21:05;;;;;;;26.40;14.52;;;;;;;9.41;76.12;97399.63;5086597;28;20140;-73
2021/09/22 06:23:32;;;;;;;23.73;14.85;;;;;;;9.38;76.47;97397.44;5087936;28;20052;-73
2021/09/22 06:25:58;;;;;;;24.15;13.93;;;;;;;9.37;76.18;97398.56;5088022;28;20051;-73
2021/09/22 06:28:25;;;;;;;23.27;14.75;;;;;;;9.34;77.16;97397.22;5087310;28;20051;-73
2021/09/22 06:30:53;;;;;;;22.02;14.32;;;;;;;9.29;76.38;97399.16;5087923;28;20051;-72
2021/09/22 06:33:19;;;;;;;28.40;15.20;;;;;;;9.27;76.63;97399.44;5087310;28;20076;-74
2021/09/22 06:35:46;;;;;;;22.15;14.25;;;;;;;9.31;77.15;97399.69;5087683;28;20048;-73
2021/09/22 06:38:12;;;;;;;24.08;14.77;;;;;;;9.30;77.15;97398.88;5087058;28;20056;-73
2021/09/22 06:40:39;;;;;;;25.20;15.40;;;;;;;9.38;77.14;97402.88;5087740;28;20059;-73
2021/09/22 06:43:06;;;;;;;21.80;15.13;;;;;;;9.43;77.74;97410.19;5087102;28;20052;-72
2021/09/22 06:45:33;;;;;;;24.83;15.25;;;;;;;9.51;77.92;97410.41;5087562;28;20048;-73
2021/09/22 06:48:01;;;;;;;23.73;15.20;;;;;;;9.59;77.15;97408.97;5087637;28;20134;-72
2021/09/22 06:50:28;;;;;;;26.48;15.80;;;;;;;9.75;77.30;97409.63;5087084;28;20044;-72
2021/09/22 06:52:55;;;;;;;23.00;14.95;;;;;;;9.91;77.00;97414.63;5086832;28;20055;-72
2021/09/22 06:55:21;;;;;;;21.88;14.95;;;;;;;9.95;75.89;97409.44;5087386;28;20052;-73
2021/09/22 06:57:48;;;;;;;24.90;14.20;;;;;;;9.97;75.71;97418.13;5087509;28;20620;-72
2021/09/22 07:00:16;;;;;;;21.83;14.25;;;;;;;10.04;75.13;97409.63;5086692;28;20055;-73
2021/09/22 07:02:42;;;;;;;23.73;14.70;;;;;;;10.12;74.59;97414.41;5087106;28;20052;-72
2021/09/22 07:05:12;;;;;;;22.33;16.05;;;;;;;10.15;74.84;97422.81;5086861;28;20048;-73
2021/09/22 07:07:40;;;;;;;22.77;14.30;;;;;;;10.23;74.52;97417.84;5086024;28;20052;-72
2021/09/22 07:10:08;;;;;;;22.70;14.93;;;;;;;10.33;74.98;97417.75;5085751;28;20040;-73
2021/09/22 07:12:35;;;;;;;22.58;15.13;;;;;;;10.50;75.57;97420.84;5089848;28;20048;-72
2021/09/22 07:15:01;;;;;;;21.42;15.02;;;;;;;10.64;75.09;97426.38;5074549;28;20499;-71
2021/09/22 07:17:28;;;;;;;24.77;14.38;;;;;;;10.74;75.63;97430.88;5070366;28;20056;-73
2021/09/22 07:19:54;;;;;;;19.55;14.07;;;;;;;10.85;73.67;97424.19;5070703;28;20048;-73
2021/09/22 07:22:22;;;;;;;22.98;15.23;;;;;;;10.98;72.77;97421.53;5082671;28;20052;-73
2021/09/22 07:24:49;;;;;;;20.55;13.55;;;;;;;11.09;72.82;97419.47;5091078;28;20052;-73
2021/09/22 07:27:15;;;;;;;24.15;13.73;;;;;;;11.12;72.61;97432.53;5090389;28;20048;-72
2021/09/22 07:29:42;;;;;;;22.15;13.60;;;;;;;11.19;72.26;97429.44;5091252;28;20133;-73
2021/09/22 07:32:09;;;;;;;21.17;14.65;;;;;;;11.18;72.54;97417.72;5089925;28;20513;-73
2021/09/22 07:34:37;;;;;;;22.00;14.07;;;;;;;11.20;71.99;97415.50;5090701;28;20067;-74
2021/09/22 07:37:07;;;;;;;22.67;13.90;;;;;;;11.23;70.93;97417.63;5090430;28;20052;-73
2021/09/22 07:39:36;;;;;;;21.17;14.32;;;;;;;11.24;71.15;97424.72;5090396;28;20134;-72
2021/09/22 07:42:03;;;;;;;19.25;13.80;;;;;;;11.35;71.56;97435.47;5090460;28;20074;-72
2021/09/22 07:44:29;;;;;;;20.02;13.23;;;;;;;11.32;70.28;97430.59;5090836;28;20054;-73
2021/09/22 07:46:56;;;;;;;22.98;14.05;;;;;;;11.38;71.40;97432.13;5090694;28;20052;-72
2021/09/22 07:49:22;;;;;;;20.48;13.93;;;;;;;11.49;71.70;97436.34;5090327;28;20659;-72
2021/09/22 07:51:49;;;;;;;18.83;13.85;;;;;;;11.56;70.16;97438.69;5089422;28;20048;-73
2021/09/22 07:54:15;;;;;;;20.45;13.18;;;;;;;11.58;70.96;97445.44;5089978;28;20067;-73
2021/09/22 07:56:43;;;;;;;17.45;12.80;;;;;;;11.60;69.20;97445.97;5090450;28;20048;-72
2021/09/22 07:59:10;;;;;;;18.55;13.13;;;;;;;11.67;70.20;97442.84;5090226;28;20044;-72
2021/09/22 08:01:36;;;;;;;19.92;13.55;;;;;;;11.74;70.18;97438.66;5090411;28;20063;-73
2021/09/22 08:04:03;;;;;;;20.20;13.68;;;;;;;11.75;70.11;97440.25;5089413;28;20070;-73
2021/09/22 08:06:29;;;;;;;20.50;14.38;;;;;;;11.77;69.87;97443.50;5089439;28;20052;-73
2021/09/22 08:08:56;;;;;;;23.55;14.07;;;;;;;11.83;70.17;97437.97;5090514;28;20052;-73
2021/09/22 08:11:23;;;;;;;22.35;13.65;;;;;;;11.76;69.58;97435.63;5089560;28;20508;-73
2021/09/22 08:13:50;;;;;;;21.83;13.75;;;;;;;11.85;70.49;97435.75;5089858;28;20040;-72
2021/09/22 08:16:17;;;;;;;18.65;13.45;;;;;;;11.89;70.46;97431.31;5089999;28;20051;-73
2021/09/22 08:18:46;;;;;;;23.80;15.02;;;;;;;11.91;70.70;97431.84;5089367;28;20074;-73
2021/09/22 08:21:13;;;;;;;19.98;14.00;;;;;;;12.01;69.38;97434.41;5088722;28;20075;-73
2021/09/22 08:23:40;;;;;;;20.48;13.88;;;;;;;12.07;69.60;97427.72;5089936;28;20089;-73
2021/09/22 08:26:07;;;;;;;20.67;13.52;;;;;;;12.20;68.75;97435.09;5089263;28;20109;-73
2021/09/22 08:28:33;;;;;;;18.98;13.43;;;;;;;12.32;68.45;97442.00;5090092;28;20059;-72
2021/09/22 08:31:01;;;;;;;21.52;14.00;;;;;;;12.38;68.28;97440.81;5090043;28;20070;-72
2021/09/22 08:33:28;;;;;;;20.15;13.00;;;;;;;12.44;68.18;97434.13;5089940;28;20058;-73
2021/09/22 08:35:54;;;;;;;18.35;13.43;;;;;;;12.44;68.38;97431.41;5089750;28;20048;-72
2021/09/22 08:38:21;;;;;;;21.52;12.98;;;;;;;12.41;67.20;97432.78;5089267;28;20052;-73
2021/09/22 08:40:47;;;;;;;21.05;13.25;;;;;;;12.41;68.07;97434.72;5089506;28;20695;-73
2021/09/22 08:43:14;;;;;;;20.90;13.63;;;;;;;12.46;67.30;97437.34;5089514;28;20051;-73
2021/09/22 08:45:42;;;;;;;20.48;14.05;;;;;;;12.46;67.27;97427.22;5089492;28;20050;-75
2021/09/22 08:48:11;;;;;;;20.35;13.93;;;;;;;12.49;67.09;97434.84;5087097;28;20048;-73
2021/09/22 08:50:38;;;;;;;20.38;13.70;;;;;;;12.52;66.88;97436.13;5089684;28;20052;-73
2021/09/22 08:53:04;;;;;;;20.05;12.75;;;;;;;12.58;66.91;97445.88;5088633;28;20592;-73
2021/09/22 08:55:31;;;;;;;18.80;13.85;;;;;;;12.61;66.74;97438.97;5089995;28;20044;-73
2021/09/22 08:57:58;;;;;;;22.73;14.90;;;;;;;12.64;66.27;97439.19;5089779;28;20044;-73
2021/09/22 09:00:24;;;;;;;20.42;14.57;;;;;;;12.70;67.20;97437.16;5089093;28;20067;-73
2021/09/22 09:02:51;;;;;;;19.23;14.18;;;;;;;12.73;67.38;97442.78;5085668;28;20044;-73
2021/09/22 09:05:20;;;;;;;24.92;14.63;;;;;;;12.79;67.85;97447.06;5087995;28;20052;-73
2021/09/22 09:07:49;;;;;;;20.33;14.30;;;;;;;12.76;65.32;97453.13;5088491;28;20052;-73
2021/09/22 09:10:16;;;;;;;19.38;14.00;;;;;;;12.80;65.33;97451.41;5088308;28;20047;-73
2021/09/22 09:12:42;;;;;;;19.27;12.65;;;;;;;12.84;66.36;97448.06;5089384;28;20052;-73
2021/09/22 09:15:11;;;;;;;20.70;13.65;;;;;;;12.82;64.86;97455.75;5088432;28;20051;-73
2021/09/22 09:17:41;;;;;;;22.10;13.60;;;;;;;12.85;65.04;97455.16;5089157;28;20054;-73
2021/09/22 09:20:21;;;;;;;17.45;13.20;;;;;;;12.72;64.40;97443.91;5088428;28;20109;-73
2021/09/22 09:23:06;;;;;;;19.88;12.93;;;;;;;12.68;64.33;97447.56;5088440;28;20071;-73
2021/09/22 09:25:36;;;;;;;20.55;13.95;;;;;;;12.65;65.11;97451.72;5089077;28;20055;-72
2021/09/22 09:28:20;;;;;;;21.90;15.05;;;;;;;12.58;64.69;97451.34;5088910;28;20419;-72
2021/09/22 09:30:49;;;;;;;20.75;13.48;;;;;;;12.60;64.61;97449.09;5088974;28;20143;-73
2021/09/22 09:33:37;;;;;;;18.73;12.30;;;;;;;12.59;64.62;97447.47;5087720;28;20403;-73
2021/09/22 09:36:43;;;;;;;16.63;12.18;;;;;;;12.66;64.63;97447.88;5088181;28;20048;-72
2021/09/22 09:39:12;;;;;;;21.33;13.10;;;;;;;12.67;65.29;97454.94;5087796;28;20047;-73
2021/09/22 09:41:42;;;;;;;22.73;12.73;;;;;;;12.72;64.26;97454.84;5087908;28;20062;-73
2021/09/22 09:44:12;;;;;;;17.10;11.48;;;;;;;12.75;63.26;97448.78;5087785;28;20040;-73
2021/09/22 09:46:39;;;;;;;15.73;12.23;;;;;;;12.82;62.57;97450.28;5088076;28;20048;-73
2021/09/22 09:49:08;;;;;;;15.40;11.48;;;;;;;12.85;61.51;97449.69;5088448;28;20048;-73
2021/09/22 09:51:40;;;;;;;18.80;12.10;;;;;;;12.89;62.74;97450.69;5087542;28;20048;-73
2021/09/22 09:54:17;;;;;;;17.40;10.50;;;;;;;12.95;62.14;97449.47;5087184;28;20137;-73
2021/09/22 09:56:45;;;;;;;15.15;11.30;;;;;;;13.01;62.42;97445.50;5088151;28;20048;-73
2021/09/22 09:59:12;;;;;;;14.15;11.35;;;;;;;13.08;62.02;97448.63;5087883;28;20044;-73
2021/09/22 10:01:42;;;;;;;15.07;10.45;;;;;;;13.22;62.77;97446.72;5088134;28;20059;-73
2021/09/22 10:04:10;;;;;;;12.10;9.18;;;;;;;13.35;60.54;97452.44;5086608;28;20055;-74
2021/09/22 10:06:38;;;;;;;13.23;9.73;;;;;;;13.48;59.42;97435.16;5085539;28;20051;-73
2021/09/22 10:09:06;;;;;;;12.98;10.20;;;;;;;13.55;59.21;97441.81;5086723;28;20059;-72
2021/09/22 10:11:34;;;;;;;13.20;10.13;;;;;;;13.60;57.74;97440.09;5088206;28;20063;-73
2021/09/22 10:14:02;;;;;;;13.90;9.52;;;;;;;13.53;57.67;97437.78;5087318;28;20411;-73
2021/09/22 10:16:29;;;;;;;14.27;9.55;;;;;;;13.54;58.11;97436.66;5088124;28;20051;-73
2021/09/22 10:18:57;;;;;;;12.55;9.30;;;;;;;13.50;58.62;97435.66;5087705;28;20060;-73
2021/09/22 10:21:24;;;;;;;16.95;9.45;;;;;;;13.43;57.64;97438.84;5087186;28;20040;-73
2021/09/22 10:23:54;;;;;;;12.95;10.05;;;;;;;13.43;59.36;97433.38;5088257;28;20465;-73
2021/09/22 10:26:22;;;;;;;15.15;10.00;;;;;;;13.38;59.06;97430.75;5088360;28;20055;-73
2021/09/22 10:28:50;;;;;;;15.98;10.48;;;;;;;13.51;58.34;97434.53;5087092;28;20055;-72
2021/09/22 10:31:35;;;;;;;12.98;9.10;;;;;;;13.44;59.02;97434.97;5087329;28;20051;-73
2021/09/22 10:34:02;;;;;;;14.57;10.02;;;;;;;13.41;58.59;97434.78;5087626;28;20048;-73
2021/09/22 10:36:35;;;;;;;13.88;10.10;;;;;;;13.39;59.38;97432.34;5087790;28;20566;-72
2021/09/22 10:39:04;;;;;;;13.18;9.90;;;;;;;13.39;59.14;97434.28;5087711;28;20097;-72
2021/09/22 10:41:34;;;;;;;15.73;10.82;;;;;;;13.39;58.44;97431.56;5078184;28;20512;-73
2021/09/22 10:44:01;;;;;;;16.80;10.43;;;;;;;13.53;59.96;97427.66;5087190;28;20043;-73
2021/09/22 10:46:31;;;;;;;16.98;10.02;;;;;;;13.66;60.82;97425.97;5091524;28;20108;-73
2021/09/22 10:49:07;;;;;;;11.52;9.02;;;;;;;13.86;60.53;97423.84;5092007;28;20050;-72
2021/09/22 10:51:36;;;;;;;13.68;8.35;;;;;;;13.97;57.33;97425.19;5091383;28;20453;-73
2021/09/22 10:54:12;;;;;;;11.65;7.82;;;;;;;14.12;57.98;97423.97;5091766;28;20044;-73
2021/09/22 10:56:51;;;;;;;15.07;8.95;;;;;;;14.30;57.49;97418.28;5092140;28;20123;-72
2021/09/22 10:59:37;;;;;;;11.60;7.75;;;;;;;14.48;58.50;97408.22;5089365;28;20052;-72
2021/09/22 11:02:07;;;;;;;13.80;8.43;;;;;;;14.71;58.81;97416.31;5090826;28;20040;-73
2021/09/22 11:04:55;;;;;;;11.90;7.57;;;;;;;14.89;55.93;97412.50;5089626;28;20044;-73
2021/09/22 11:07:22;;;;;;;15.68;8.43;;;;;;;14.96;57.50;97412.03;5090818;28;20051;-72
2021/09/22 11:09:50;;;;;;;11.73;8.57;;;;;;;15.05;55.53;97412.84;5091725;28;20048;-73
2021/09/22 11:12:17;;;;;;;14.02;9.02;;;;;;;15.18;56.83;97411.06;5090193;28;20051;-73
2021/09/22 11:14:49;;;;;;;14.57;9.20;;;;;;;15.27;56.08;97401.72;5091285;28;20062;-72
2021/09/22 11:17:18;;;;;;;11.35;7.68;;;;;;;15.43;55.00;97406.72;5090820;28;20052;-72
2021/09/22 11:19:47;;;;;;;13.68;8.45;;;;;;;15.54;54.69;97405.25;5089771;28;20055;-72
2021/09/22 11:22:15;;;;;;;17.98;8.52;;;;;;;15.65;55.98;97406.56;5089260;28;20044;-73
2021/09/22 11:24:43;;;;;;;12.23;7.32;;;;;;;15.71;54.45;97394.28;5088516;28;20530;-72
2021/09/22 11:27:14;;;;;;;8.98;6.78;;;;;;;15.78;54.68;97394.59;5090272;28;20474;-73